createdAt,value
2023-05-13T00:00:13.931Z,1019.57
2023-05-13T00:01:12.798Z,1019.57
2023-05-13T00:02:13.929Z,1019.58
2023-05-13T00:03:12.978Z,1019.56
2023-05-13T00:04:13.214Z,1019.61
2023-05-13T00:05:13.434Z,1019.60
2023-05-13T00:06:13.302Z,1019.59
2023-05-13T00:07:13.691Z,1019.58
2023-05-13T00:08:13.566Z,1019.57
2023-05-13T00:09:13.450Z,1019.61
2023-05-13T00:10:13.377Z,1019.56
2023-05-13T00:11:13.236Z,1019.59
2023-05-13T00:12:13.104Z,1019.59
2023-05-13T00:13:13.013Z,1019.59
2023-05-13T00:14:12.967Z,1019.56
2023-05-13T00:15:13.346Z,1019.55
2023-05-13T00:16:13.294Z,1019.50
2023-05-13T00:17:13.471Z,1019.53
2023-05-13T00:18:13.569Z,1019.54
2023-05-13T00:19:13.796Z,1019.53
2023-05-13T00:20:12.947Z,1019.52
2023-05-13T00:21:13.173Z,1019.52
2023-05-13T00:22:12.951Z,1019.52
2023-05-13T00:23:13.924Z,1019.51
2023-05-13T00:24:13.564Z,1019.55
2023-05-13T00:25:13.642Z,1019.50
2023-05-13T00:26:13.531Z,1019.55
2023-05-13T00:27:13.495Z,1019.54
2023-05-13T00:28:13.602Z,1019.55
2023-05-13T00:29:13.904Z,1019.55
2023-05-13T00:30:12.978Z,1019.53
2023-05-13T00:31:12.811Z,1019.51
2023-05-13T00:32:13.654Z,1019.56
2023-05-13T00:33:13.756Z,1019.54
2023-05-13T00:34:13.819Z,1019.56
2023-05-13T00:35:13.758Z,1019.49
2023-05-13T00:36:13.653Z,1019.51
2023-05-13T00:37:14.040Z,1019.51
2023-05-13T00:38:12.881Z,1019.53
2023-05-13T00:39:12.773Z,1019.53
2023-05-13T00:40:13.813Z,1019.52
2023-05-13T00:41:13.982Z,1019.53
2023-05-13T00:42:12.965Z,1019.53
2023-05-13T00:43:12.904Z,1019.52
2023-05-13T00:44:14.557Z,1019.50
2023-05-13T00:45:13.693Z,1019.50
2023-05-13T00:46:13.455Z,1019.51
2023-05-13T00:47:13.229Z,1019.53
2023-05-13T00:48:13.019Z,1019.52
2023-05-13T00:49:12.912Z,1019.51
2023-05-13T00:50:12.870Z,1019.54
2023-05-13T00:51:13.980Z,1019.53
2023-05-13T00:52:12.789Z,1019.53
2023-05-13T00:53:13.660Z,1019.56
2023-05-13T00:54:13.573Z,1019.56
2023-05-13T00:55:13.523Z,1019.54
2023-05-13T00:56:13.712Z,1019.55
2023-05-13T00:57:13.986Z,1019.55
2023-05-13T00:58:12.900Z,1019.58
2023-05-13T00:59:12.764Z,1019.57
2023-05-13T01:00:13.964Z,1019.57
2023-05-13T01:01:12.823Z,1019.57
2023-05-13T01:02:13.764Z,1019.61
2023-05-13T01:03:13.639Z,1019.60
2023-05-13T01:04:13.438Z,1019.59
2023-05-13T01:05:13.375Z,1019.57
2023-05-13T01:06:13.550Z,1019.62
2023-05-13T01:07:13.420Z,1019.59
2023-05-13T01:08:13.380Z,1019.61
2023-05-13T01:09:13.392Z,1019.55
2023-05-13T01:10:13.329Z,1019.57
2023-05-13T01:11:13.269Z,1019.56
2023-05-13T01:12:13.587Z,1019.58
2023-05-13T01:13:13.652Z,1019.59
2023-05-13T01:14:13.709Z,1019.59
2023-05-13T01:15:13.828Z,1019.56
2023-05-13T01:16:13.788Z,1019.58
2023-05-13T01:17:13.912Z,1019.57
2023-05-13T01:18:13.010Z,1019.57
2023-05-13T01:19:13.000Z,1019.56
2023-05-13T01:20:13.272Z,1019.53
2023-05-13T01:21:13.076Z,1019.54
2023-05-13T01:22:18.000Z,1019.53
2023-05-13T01:23:12.992Z,1019.50
2023-05-13T01:24:12.891Z,1019.49
2023-05-13T01:25:12.720Z,1019.52
2023-05-13T01:26:13.787Z,1019.51
2023-05-13T01:27:13.697Z,1019.49
2023-05-13T01:28:13.769Z,1019.54
2023-05-13T01:29:13.793Z,1019.52
2023-05-13T01:30:13.774Z,1019.54
2023-05-13T01:31:13.699Z,1019.52
2023-05-13T01:32:13.698Z,1019.54
2023-05-13T01:33:13.700Z,1019.53
2023-05-13T01:34:13.531Z,1019.52
2023-05-13T01:35:13.569Z,1019.54
2023-05-13T01:36:13.339Z,1019.55
2023-05-13T01:37:13.192Z,1019.56
2023-05-13T01:38:13.180Z,1019.56
2023-05-13T01:39:13.115Z,1019.59
2023-05-13T01:40:24.102Z,1019.62
2023-05-13T01:41:13.826Z,1019.59
2023-05-13T01:42:13.577Z,1019.61
2023-05-13T01:43:13.455Z,1019.62
2023-05-13T01:44:13.204Z,1019.65
2023-05-13T01:45:13.147Z,1019.62
2023-05-13T01:46:13.138Z,1019.64
2023-05-13T01:47:13.008Z,1019.64
2023-05-13T01:48:12.994Z,1019.63
2023-05-13T01:49:12.888Z,1019.66
2023-05-13T01:50:12.778Z,1019.64
2023-05-13T01:51:13.759Z,1019.64
2023-05-13T01:52:13.906Z,1019.64
2023-05-13T01:53:12.828Z,1019.69
2023-05-13T01:54:13.945Z,1019.66
2023-05-13T01:55:12.931Z,1019.67
2023-05-13T01:56:12.770Z,1019.66
2023-05-13T01:57:13.731Z,1019.66
2023-05-13T01:58:13.593Z,1019.64
2023-05-13T01:59:13.567Z,1019.65
2023-05-13T02:00:13.451Z,1019.65
2023-05-13T02:01:13.607Z,1019.64
2023-05-13T02:02:13.508Z,1019.64
2023-05-13T02:03:13.482Z,1019.66
2023-05-13T02:04:13.421Z,1019.67
2023-05-13T02:05:13.506Z,1019.65
2023-05-13T02:06:13.305Z,1019.62
2023-05-13T02:07:13.688Z,1019.68
2023-05-13T02:08:13.623Z,1019.63
2023-05-13T02:09:13.660Z,1019.62
2023-05-13T02:10:13.515Z,1019.64
2023-05-13T02:11:13.432Z,1019.65
2023-05-13T02:12:13.228Z,1019.62
2023-05-13T02:13:13.267Z,1019.65
2023-05-13T02:14:13.226Z,1019.62
2023-05-13T02:15:13.163Z,1019.67
2023-05-13T02:16:13.615Z,1019.64
2023-05-13T02:17:13.487Z,1019.64
2023-05-13T02:18:13.545Z,1019.64
2023-05-13T02:19:13.549Z,1019.65
2023-05-13T02:20:13.402Z,1019.63
2023-05-13T02:21:13.430Z,1019.63
2023-05-13T02:22:13.163Z,1019.60
2023-05-13T02:23:13.104Z,1019.64
2023-05-13T02:24:13.237Z,1019.63
2023-05-13T02:25:13.025Z,1019.60
2023-05-13T02:26:13.037Z,1019.62
2023-05-13T02:27:13.190Z,1019.65
2023-05-13T02:28:13.013Z,1019.65
2023-05-13T02:29:12.905Z,1019.65
2023-05-13T02:30:12.822Z,1019.68
2023-05-13T02:31:13.740Z,1019.64
2023-05-13T02:32:13.943Z,1019.67
2023-05-13T02:33:13.002Z,1019.65
2023-05-13T02:34:12.847Z,1019.64
2023-05-13T02:35:13.683Z,1019.60
2023-05-13T02:36:13.754Z,1019.62
2023-05-13T02:37:14.232Z,1019.57
2023-05-13T02:38:13.498Z,1019.55
2023-05-13T02:39:13.919Z,1019.55
2023-05-13T02:40:12.848Z,1019.52
2023-05-13T02:41:14.166Z,1019.55
2023-05-13T02:42:13.027Z,1019.57
2023-05-13T02:43:13.094Z,1019.55
2023-05-13T02:44:12.893Z,1019.54
2023-05-13T02:45:13.729Z,1019.54
2023-05-13T02:46:13.569Z,1019.53
2023-05-13T02:47:13.434Z,1019.52
2023-05-13T02:48:13.290Z,1019.52
2023-05-13T02:49:13.314Z,1019.52
2023-05-13T02:50:13.481Z,1019.50
2023-05-13T02:51:13.416Z,1019.47
2023-05-13T02:52:13.362Z,1019.47
2023-05-13T02:53:13.259Z,1019.49
2023-05-13T02:54:13.111Z,1019.48
2023-05-13T02:55:12.981Z,1019.47
2023-05-13T02:56:12.844Z,1019.52
2023-05-13T02:57:13.689Z,1019.50
2023-05-13T02:58:13.515Z,1019.46
2023-05-13T02:59:13.295Z,1019.50
2023-05-13T03:00:13.328Z,1019.46
2023-05-13T03:01:13.208Z,1019.47
2023-05-13T03:02:13.388Z,1019.48
2023-05-13T03:03:13.395Z,1019.50
2023-05-13T03:04:13.262Z,1019.44
2023-05-13T03:05:13.462Z,1019.41
2023-05-13T03:06:13.361Z,1019.47
2023-05-13T03:07:13.299Z,1019.45
2023-05-13T03:08:14.642Z,1019.46
2023-05-13T03:09:13.532Z,1019.47
2023-05-13T03:10:13.387Z,1019.48
2023-05-13T03:11:13.424Z,1019.43
2023-05-13T03:12:13.325Z,1019.46
2023-05-13T03:13:13.242Z,1019.47
2023-05-13T03:14:13.358Z,1019.45
2023-05-13T03:15:13.243Z,1019.49
2023-05-13T03:16:13.170Z,1019.53
2023-05-13T03:17:13.019Z,1019.50
2023-05-13T03:18:12.884Z,1019.54
2023-05-13T03:19:12.865Z,1019.54
2023-05-13T03:20:12.850Z,1019.57
2023-05-13T03:21:13.751Z,1019.61
2023-05-13T03:22:13.801Z,1019.56
2023-05-13T03:23:13.843Z,1019.53
2023-05-13T03:24:13.681Z,1019.50
2023-05-13T03:25:13.555Z,1019.50
2023-05-13T03:26:13.394Z,1019.48
2023-05-13T03:27:13.240Z,1019.49
2023-05-13T03:28:13.020Z,1019.48
2023-05-13T03:29:12.791Z,1019.50
2023-05-13T03:30:13.692Z,1019.51
2023-05-13T03:31:13.584Z,1019.54
2023-05-13T03:32:13.451Z,1019.55
2023-05-13T03:33:13.278Z,1019.59
2023-05-13T03:34:13.460Z,1019.58
2023-05-13T03:35:13.474Z,1019.58
2023-05-13T03:36:13.358Z,1019.55
2023-05-13T03:37:13.187Z,1019.55
2023-05-13T03:38:13.031Z,1019.55
2023-05-13T03:39:12.775Z,1019.50
2023-05-13T03:40:13.606Z,1019.53
2023-05-13T03:41:13.696Z,1019.49
2023-05-13T03:42:13.616Z,1019.52
2023-05-13T03:43:13.437Z,1019.51
2023-05-13T03:44:13.526Z,1019.51
2023-05-13T03:45:13.613Z,1019.52
2023-05-13T03:46:13.427Z,1019.50
2023-05-13T03:47:13.581Z,1019.53
2023-05-13T03:48:13.395Z,1019.51
2023-05-13T03:49:13.224Z,1019.53
2023-05-13T03:50:13.421Z,1019.49
2023-05-13T03:51:13.388Z,1019.54
2023-05-13T03:52:13.196Z,1019.54
2023-05-13T03:53:13.189Z,1019.51
2023-05-13T03:54:13.057Z,1019.51
2023-05-13T03:55:12.923Z,1019.50
2023-05-13T03:56:13.074Z,1019.53
2023-05-13T03:57:12.947Z,1019.56
2023-05-13T03:58:12.776Z,1019.54
2023-05-13T03:59:13.951Z,1019.54
2023-05-13T04:00:12.858Z,1019.56
2023-05-13T04:01:13.682Z,1019.59
2023-05-13T04:02:13.898Z,1019.56
2023-05-13T04:03:12.909Z,1019.62
2023-05-13T04:04:12.947Z,1019.60
2023-05-13T04:05:13.188Z,1019.60
2023-05-13T04:06:13.403Z,1019.61
2023-05-13T04:07:13.429Z,1019.62
2023-05-13T04:08:13.405Z,1019.55
2023-05-13T04:09:13.293Z,1019.58
2023-05-13T04:10:15.228Z,1019.59
2023-05-13T04:11:13.728Z,1019.60
2023-05-13T04:12:13.584Z,1019.60
2023-05-13T04:13:13.622Z,1019.63
2023-05-13T04:14:13.466Z,1019.65
2023-05-13T04:15:13.395Z,1019.67
2023-05-13T04:16:14.014Z,1019.68
2023-05-13T04:17:13.085Z,1019.70
2023-05-13T04:18:13.079Z,1019.71
2023-05-13T04:19:13.279Z,1019.71
2023-05-13T04:20:13.364Z,1019.70
2023-05-13T04:21:13.310Z,1019.73
2023-05-13T04:22:13.465Z,1019.71
2023-05-13T04:23:13.525Z,1019.70
2023-05-13T04:24:13.241Z,1019.68
2023-05-13T04:25:13.300Z,1019.68
2023-05-13T04:26:13.178Z,1019.62
2023-05-13T04:27:13.196Z,1019.65
2023-05-13T04:28:13.297Z,1019.63
2023-05-13T04:29:13.091Z,1019.70
2023-05-13T04:30:13.169Z,1019.69
2023-05-13T04:31:13.011Z,1019.67
2023-05-13T04:32:13.224Z,1019.67
2023-05-13T04:33:13.074Z,1019.75
2023-05-13T04:34:13.011Z,1019.73
2023-05-13T04:35:12.952Z,1019.72
2023-05-13T04:36:15.070Z,1019.74
2023-05-13T04:37:13.227Z,1019.77
2023-05-13T04:38:13.109Z,1019.72
2023-05-13T04:39:13.066Z,1019.75
2023-05-13T04:40:13.036Z,1019.75
2023-05-13T04:41:13.030Z,1019.76
2023-05-13T04:42:12.924Z,1019.75
2023-05-13T04:43:13.018Z,1019.77
2023-05-13T04:44:12.788Z,1019.83
2023-05-13T04:45:13.541Z,1019.81
2023-05-13T04:46:13.459Z,1019.82
2023-05-13T04:47:13.292Z,1019.81
2023-05-13T04:48:13.598Z,1019.83
2023-05-13T04:49:13.682Z,1019.85
2023-05-13T04:50:13.047Z,1019.85
2023-05-13T04:51:13.561Z,1019.83
2023-05-13T04:52:13.399Z,1019.84
2023-05-13T04:53:13.229Z,1019.84
2023-05-13T04:54:13.107Z,1019.83
2023-05-13T04:55:12.941Z,1019.86
2023-05-13T04:56:12.999Z,1019.86
2023-05-13T04:57:13.249Z,1019.88
2023-05-13T04:58:13.094Z,1019.85
2023-05-13T04:59:12.826Z,1019.84
2023-05-13T05:00:13.963Z,1019.86
2023-05-13T05:01:12.948Z,1019.89
2023-05-13T05:02:12.736Z,1019.89
2023-05-13T05:03:13.783Z,1019.89
2023-05-13T05:04:13.987Z,1019.91
2023-05-13T05:05:12.836Z,1019.89
2023-05-13T05:06:13.696Z,1019.93
2023-05-13T05:07:13.693Z,1019.95
2023-05-13T05:08:13.752Z,1019.99
2023-05-13T05:09:13.582Z,1019.98
2023-05-13T05:10:13.550Z,1020.02
2023-05-13T05:11:13.650Z,1020.05
2023-05-13T05:12:13.527Z,1020.02
2023-05-13T05:13:13.403Z,1020.04
2023-05-13T05:14:13.303Z,1020.09
2023-05-13T05:15:13.128Z,1020.09
2023-05-13T05:16:12.958Z,1020.15
2023-05-13T05:17:12.843Z,1020.14
2023-05-13T05:18:14.077Z,1020.15
2023-05-13T05:19:13.012Z,1020.14
2023-05-13T05:20:13.577Z,1020.10
2023-05-13T05:21:13.767Z,1020.12
2023-05-13T05:22:13.730Z,1020.09
2023-05-13T05:23:13.764Z,1020.10
2023-05-13T05:24:13.932Z,1020.18
2023-05-13T05:25:12.858Z,1020.15
2023-05-13T05:26:13.679Z,1020.18
2023-05-13T05:27:13.566Z,1020.17
2023-05-13T05:28:13.700Z,1020.22
2023-05-13T05:29:13.969Z,1020.21
2023-05-13T05:30:13.204Z,1020.21
2023-05-13T05:31:13.066Z,1020.20
2023-05-13T05:32:13.077Z,1020.19
2023-05-13T05:33:13.499Z,1020.14
2023-05-13T05:34:13.376Z,1020.18
2023-05-13T05:35:13.284Z,1020.19
2023-05-13T05:36:13.183Z,1020.16
2023-05-13T05:37:13.015Z,1020.13
2023-05-13T05:38:12.848Z,1020.11
2023-05-13T05:39:13.609Z,1020.08
2023-05-13T05:40:13.522Z,1020.01
2023-05-13T05:41:13.414Z,1020.04
2023-05-13T05:42:13.277Z,1020.04
2023-05-13T05:43:13.236Z,1020.04
2023-05-13T05:44:13.087Z,1019.98
2023-05-13T05:45:13.056Z,1019.98
2023-05-13T05:46:13.049Z,1019.96
2023-05-13T05:47:13.136Z,1020.05
2023-05-13T05:48:13.013Z,1020.02
2023-05-13T05:49:12.943Z,1020.01
2023-05-13T05:50:12.825Z,1020.05
2023-05-13T05:51:13.668Z,1020.08
2023-05-13T05:52:13.560Z,1020.09
2023-05-13T05:53:13.335Z,1020.09
2023-05-13T05:54:13.508Z,1020.10
2023-05-13T05:55:13.571Z,1020.16
2023-05-13T05:56:13.740Z,1020.19
2023-05-13T05:57:13.552Z,1020.17
2023-05-13T05:58:13.531Z,1020.17
2023-05-13T05:59:13.278Z,1020.12
2023-05-13T06:00:13.246Z,1020.09
2023-05-13T06:01:13.028Z,1020.14
2023-05-13T06:02:12.859Z,1020.15
2023-05-13T06:03:13.957Z,1020.16
2023-05-13T06:04:13.228Z,1020.20
2023-05-13T06:05:13.402Z,1020.26
2023-05-13T06:06:13.524Z,1020.32
2023-05-13T06:07:13.561Z,1020.32
2023-05-13T06:08:13.564Z,1020.33
2023-05-13T06:09:13.935Z,1020.34
2023-05-13T06:10:12.826Z,1020.41
2023-05-13T06:11:13.698Z,1020.39
2023-05-13T06:12:14.350Z,1020.38
2023-05-13T06:13:13.603Z,1020.33
2023-05-13T06:14:13.443Z,1020.33
2023-05-13T06:15:13.375Z,1020.33
2023-05-13T06:16:13.218Z,1020.35
2023-05-13T06:17:13.264Z,1020.26
2023-05-13T06:18:13.158Z,1020.42
2023-05-13T06:19:13.108Z,1020.51
2023-05-13T06:20:12.893Z,1020.53
2023-05-13T06:21:12.709Z,1020.48
2023-05-13T06:22:13.556Z,1020.62
2023-05-13T06:23:13.481Z,1020.58
2023-05-13T06:24:13.388Z,1020.57
2023-05-13T06:25:13.684Z,1020.54
2023-05-13T06:26:13.502Z,1020.56
2023-05-13T06:27:13.416Z,1020.53
2023-05-13T06:28:13.184Z,1020.53
2023-05-13T06:29:12.920Z,1020.53
2023-05-13T06:30:12.981Z,1020.56
2023-05-13T06:31:12.953Z,1020.53
2023-05-13T06:32:13.517Z,1020.61
2023-05-13T06:33:13.413Z,1020.56
2023-05-13T06:34:13.355Z,1020.52
2023-05-13T06:35:13.308Z,1020.48
2023-05-13T06:36:13.172Z,1020.48
2023-05-13T06:37:13.195Z,1020.52
2023-05-13T06:38:12.993Z,1020.51
2023-05-13T06:39:12.910Z,1020.50
2023-05-13T06:40:12.795Z,1020.53
2023-05-13T06:41:13.789Z,1020.50
2023-05-13T06:42:14.453Z,1020.53
2023-05-13T06:43:13.437Z,1020.49
2023-05-13T06:44:13.375Z,1020.50
2023-05-13T06:45:13.725Z,1020.50
2023-05-13T06:46:13.674Z,1020.49
2023-05-13T06:47:14.006Z,1020.51
2023-05-13T06:48:12.928Z,1020.50
2023-05-13T06:49:12.882Z,1020.54
2023-05-13T06:50:12.845Z,1020.53
2023-05-13T06:51:13.986Z,1020.49
2023-05-13T06:52:12.907Z,1020.53
2023-05-13T06:53:12.727Z,1020.45
2023-05-13T06:54:13.626Z,1020.46
2023-05-13T06:55:13.805Z,1020.48
2023-05-13T06:56:13.692Z,1020.52
2023-05-13T06:57:13.844Z,1020.53
2023-05-13T06:58:13.550Z,1020.55
2023-05-13T06:59:13.436Z,1020.52
2023-05-13T07:00:13.238Z,1020.49
2023-05-13T07:01:13.242Z,1020.46
2023-05-13T07:02:13.359Z,1020.44
2023-05-13T07:03:13.710Z,1020.46
2023-05-13T07:04:13.679Z,1020.42
2023-05-13T07:05:13.478Z,1020.42
2023-05-13T07:06:13.203Z,1020.42
2023-05-13T07:07:13.125Z,1020.40
2023-05-13T07:08:12.920Z,1020.37
2023-05-13T07:09:12.710Z,1020.39
2023-05-13T07:10:13.562Z,1020.37
2023-05-13T07:11:13.448Z,1020.35
2023-05-13T07:12:13.476Z,1020.36
2023-05-13T07:13:13.350Z,1020.35
2023-05-13T07:14:13.141Z,1020.34
2023-05-13T07:15:12.995Z,1020.37
2023-05-13T07:16:12.881Z,1020.38
2023-05-13T07:17:13.897Z,1020.35
2023-05-13T07:18:12.827Z,1020.34
2023-05-13T07:19:13.677Z,1020.37
2023-05-13T07:20:13.647Z,1020.40
2023-05-13T07:21:13.491Z,1020.39
2023-05-13T07:22:18.707Z,1020.40
2023-05-13T07:23:13.608Z,1020.42
2023-05-13T07:24:13.481Z,1020.40
2023-05-13T07:25:13.524Z,1020.42
2023-05-13T07:26:13.605Z,1020.41
2023-05-13T07:27:13.733Z,1020.45
2023-05-13T07:28:13.876Z,1020.44
2023-05-13T07:29:14.023Z,1020.43
2023-05-13T07:30:13.025Z,1020.43
2023-05-13T07:31:13.116Z,1020.43
2023-05-13T07:32:12.933Z,1020.38
2023-05-13T07:33:12.992Z,1020.39
2023-05-13T07:34:13.097Z,1020.38
2023-05-13T07:35:13.108Z,1020.40
2023-05-13T07:36:13.263Z,1020.44
2023-05-13T07:37:13.056Z,1020.44
2023-05-13T07:38:12.863Z,1020.47
2023-05-13T07:39:13.645Z,1020.46
2023-05-13T07:40:18.757Z,1020.46
2023-05-13T07:41:13.620Z,1020.47
2023-05-13T07:42:13.637Z,1020.45
2023-05-13T07:43:13.490Z,1020.41
2023-05-13T07:44:13.593Z,1020.45
2023-05-13T07:45:13.425Z,1020.43
2023-05-13T07:46:13.221Z,1020.40
2023-05-13T07:47:13.734Z,1020.41
2023-05-13T07:48:12.845Z,1020.42
2023-05-13T07:49:12.685Z,1020.40
2023-05-13T07:50:13.615Z,1020.42
2023-05-13T07:51:13.597Z,1020.40
2023-05-13T07:52:13.487Z,1020.36
2023-05-13T07:53:13.415Z,1020.41
2023-05-13T07:54:13.202Z,1020.39
2023-05-13T07:55:13.042Z,1020.39
2023-05-13T07:56:12.849Z,1020.38
2023-05-13T07:57:13.877Z,1020.33
2023-05-13T07:58:13.853Z,1020.34
2023-05-13T07:59:14.116Z,1020.35
2023-05-13T08:00:13.001Z,1020.38
2023-05-13T08:01:13.054Z,1020.36
2023-05-13T08:02:12.894Z,1020.40
2023-05-13T08:03:13.831Z,1020.40
2023-05-13T08:04:14.260Z,1020.37
2023-05-13T08:05:13.509Z,1020.35
2023-05-13T08:06:13.359Z,1020.41
2023-05-13T08:07:13.148Z,1020.42
2023-05-13T08:08:13.030Z,1020.41
2023-05-13T08:09:13.248Z,1020.43
2023-05-13T08:10:13.193Z,1020.39
2023-05-13T08:11:13.998Z,1020.40
2023-05-13T08:12:13.036Z,1020.38
2023-05-13T08:13:13.154Z,1020.39
2023-05-13T08:14:13.132Z,1020.39
2023-05-13T08:15:14.103Z,1020.44
2023-05-13T08:16:13.000Z,1020.41
2023-05-13T08:17:12.870Z,1020.42
2023-05-13T08:18:13.880Z,1020.44
2023-05-13T08:19:13.755Z,1020.43
2023-05-13T08:20:13.670Z,1020.43
2023-05-13T08:21:13.758Z,1020.45
2023-05-13T08:22:13.858Z,1020.43
2023-05-13T08:23:13.814Z,1020.42
2023-05-13T08:24:13.659Z,1020.42
2023-05-13T08:25:13.706Z,1020.45
2023-05-13T08:26:13.667Z,1020.47
2023-05-13T08:27:13.475Z,1020.49
2023-05-13T08:28:13.228Z,1020.50
2023-05-13T08:29:18.298Z,1020.50
2023-05-13T08:30:13.443Z,1020.47
2023-05-13T08:31:13.290Z,1020.49
2023-05-13T08:32:13.483Z,1020.50
2023-05-13T08:33:13.325Z,1020.48
2023-05-13T08:34:13.143Z,1020.48
2023-05-13T08:35:13.140Z,1020.46
2023-05-13T08:36:13.089Z,1020.46
2023-05-13T08:37:13.346Z,1020.49
2023-05-13T08:38:13.230Z,1020.50
2023-05-13T08:39:13.317Z,1020.47
2023-05-13T08:40:14.614Z,1020.46
2023-05-13T08:41:13.736Z,1020.44
2023-05-13T08:42:13.774Z,1020.44
2023-05-13T08:43:13.891Z,1020.39
2023-05-13T08:44:12.950Z,1020.45
2023-05-13T08:45:12.814Z,1020.48
2023-05-13T08:46:13.724Z,1020.46
2023-05-13T08:47:13.524Z,1020.42
2023-05-13T08:48:13.359Z,1020.41
2023-05-13T08:49:13.295Z,1020.43
2023-05-13T08:50:13.323Z,1020.44
2023-05-13T08:51:13.102Z,1020.44
2023-05-13T08:52:12.846Z,1020.46
2023-05-13T08:53:13.848Z,1020.42
2023-05-13T08:54:12.996Z,1020.41
2023-05-13T08:55:12.950Z,1020.41
2023-05-13T08:56:13.160Z,1020.44
2023-05-13T08:57:13.031Z,1020.47
2023-05-13T08:58:12.889Z,1020.44
2023-05-13T08:59:12.961Z,1020.51
2023-05-13T09:00:12.928Z,1020.44
2023-05-13T09:01:12.860Z,1020.42
2023-05-13T09:02:13.674Z,1020.36
2023-05-13T09:03:13.545Z,1020.40
2023-05-13T09:04:13.373Z,1020.43
2023-05-13T09:05:13.364Z,1020.44
2023-05-13T09:06:13.191Z,1020.41
2023-05-13T09:07:13.057Z,1020.40
2023-05-13T09:08:12.838Z,1020.40
2023-05-13T09:09:12.841Z,1020.37
2023-05-13T09:10:13.772Z,1020.40
2023-05-13T09:11:13.758Z,1020.41
2023-05-13T09:12:13.619Z,1020.39
2023-05-13T09:13:13.479Z,1020.38
2023-05-13T09:14:13.598Z,1020.41
2023-05-13T09:15:13.738Z,1020.42
2023-05-13T09:16:13.992Z,1020.42
2023-05-13T09:17:13.178Z,1020.36
2023-05-13T09:18:13.549Z,1020.40
2023-05-13T09:19:13.818Z,1020.39
2023-05-13T09:20:12.714Z,1020.35
2023-05-13T09:21:13.609Z,1020.39
2023-05-13T09:22:13.618Z,1020.40
2023-05-13T09:23:13.540Z,1020.38
2023-05-13T09:24:13.345Z,1020.40
2023-05-13T09:25:13.417Z,1020.35
2023-05-13T09:26:13.229Z,1020.37
2023-05-13T09:27:13.319Z,1020.36
2023-05-13T09:28:13.208Z,1020.41
2023-05-13T09:29:13.100Z,1020.42
2023-05-13T09:30:13.199Z,1020.43
2023-05-13T09:31:13.156Z,1020.42
2023-05-13T09:32:13.889Z,1020.40
2023-05-13T09:33:12.829Z,1020.35
2023-05-13T09:34:13.592Z,1020.41
2023-05-13T09:35:13.644Z,1020.33
2023-05-13T09:36:13.560Z,1020.37
2023-05-13T09:37:13.739Z,1020.41
2023-05-13T09:38:13.963Z,1020.40
2023-05-13T09:39:13.146Z,1020.41
2023-05-13T09:40:13.088Z,1020.37
2023-05-13T09:41:12.912Z,1020.38
2023-05-13T09:42:12.794Z,1020.34
2023-05-13T09:43:14.114Z,1020.30
2023-05-13T09:44:13.069Z,1020.31
2023-05-13T09:45:12.948Z,1020.27
2023-05-13T09:46:12.771Z,1020.29
2023-05-13T09:47:13.552Z,1020.31
2023-05-13T09:48:13.537Z,1020.24
2023-05-13T09:49:13.315Z,1020.26
2023-05-13T09:50:13.109Z,1020.21
2023-05-13T09:51:13.672Z,1020.25
2023-05-13T09:52:13.475Z,1020.23
2023-05-13T09:53:13.478Z,1020.19
2023-05-13T09:54:13.286Z,1020.16
2023-05-13T09:55:13.121Z,1020.21
2023-05-13T09:56:12.902Z,1020.15
2023-05-13T09:57:12.790Z,1020.19
2023-05-13T09:58:13.793Z,1020.17
2023-05-13T09:59:13.793Z,1020.16
2023-05-13T10:01:00.115Z,1020.05
2023-05-13T10:01:12.268Z,1020.01
2023-05-13T10:02:13.153Z,1020.08
2023-05-13T10:03:13.447Z,1020.15
2023-05-13T10:04:13.609Z,1020.15
2023-05-13T10:05:13.626Z,1020.14
2023-05-13T10:06:13.631Z,1020.06
2023-05-13T10:07:13.662Z,1020.10
2023-05-13T10:08:13.669Z,1020.12
2023-05-13T10:09:13.679Z,1020.13
2023-05-13T10:10:14.751Z,1020.18
2023-05-13T10:11:14.901Z,1020.17
2023-05-13T10:12:13.466Z,1020.11
2023-05-13T10:13:13.291Z,1020.08
2023-05-13T10:14:13.301Z,1020.07
2023-05-13T10:15:18.325Z,1020.06
2023-05-13T10:16:13.411Z,1020.11
2023-05-13T10:17:13.430Z,1020.13
2023-05-13T10:18:13.256Z,1020.17
2023-05-13T10:19:13.486Z,1020.10
2023-05-13T10:20:13.567Z,1020.16
2023-05-13T10:21:13.297Z,1020.12
2023-05-13T10:22:13.438Z,1020.09
2023-05-13T10:23:13.392Z,1020.12
2023-05-13T10:24:18.313Z,1020.14
2023-05-13T10:25:13.274Z,1020.11
2023-05-13T10:26:12.984Z,1020.03
2023-05-13T10:27:12.857Z,1020.08
2023-05-13T10:28:13.781Z,1020.05
2023-05-13T10:29:13.603Z,1020.02
2023-05-13T10:30:13.491Z,1020.07
2023-05-13T10:31:13.369Z,1020.06
2023-05-13T10:32:13.618Z,1020.02
2023-05-13T10:33:36.968Z,1020.03
2023-05-13T10:34:13.776Z,1020.01
2023-05-13T10:35:13.605Z,1019.99
2023-05-13T10:36:13.654Z,1020.00
2023-05-13T10:37:13.732Z,1019.92
2023-05-13T10:39:13.511Z,1019.92
2023-05-13T10:40:13.851Z,1019.87
2023-05-13T10:41:33.487Z,1019.92
2023-05-13T10:42:13.604Z,1019.88
2023-05-13T10:43:13.657Z,1019.87
2023-05-13T10:44:13.445Z,1019.84
2023-05-13T10:45:36.956Z,1019.90
2023-05-13T10:46:13.093Z,1019.93
2023-05-13T10:47:13.016Z,1019.92
2023-05-13T10:48:13.200Z,1019.89
2023-05-13T10:49:13.788Z,1019.89
2023-05-13T10:50:13.615Z,1019.87
2023-05-13T10:51:13.852Z,1019.95
2023-05-13T10:52:13.644Z,1019.89
2023-05-13T10:53:13.518Z,1019.92
2023-05-13T10:54:13.361Z,1019.93
2023-05-13T10:55:13.172Z,1019.96
2023-05-13T10:56:13.208Z,1019.91
2023-05-13T10:57:18.460Z,1019.92
2023-05-13T10:58:13.430Z,1019.84
2023-05-13T10:59:18.504Z,1019.88
2023-05-13T11:00:17.454Z,1019.87
2023-05-13T11:01:14.082Z,1019.90
2023-05-13T11:02:15.757Z,1019.91
2023-05-13T11:03:13.771Z,1019.91
2023-05-13T11:04:12.838Z,1019.91
2023-05-13T11:05:12.738Z,1019.96
2023-05-13T11:06:13.480Z,1019.91
2023-05-13T11:07:13.431Z,1019.97
2023-05-13T11:08:13.533Z,1019.94
2023-05-13T11:09:13.573Z,1019.94
2023-05-13T11:10:13.515Z,1019.87
2023-05-13T11:11:13.317Z,1019.89
2023-05-13T11:12:13.108Z,1019.88
2023-05-13T11:13:13.215Z,1019.90
2023-05-13T11:14:13.222Z,1019.90
2023-05-13T11:15:13.581Z,1019.84
2023-05-13T11:16:13.394Z,1019.83
2023-05-13T11:17:13.207Z,1019.82
2023-05-13T11:18:12.994Z,1019.80
2023-05-13T11:19:13.075Z,1019.78
2023-05-13T11:20:12.990Z,1019.81
2023-05-13T11:21:12.818Z,1019.83
2023-05-13T11:22:13.694Z,1019.78
2023-05-13T11:23:14.702Z,1019.78
2023-05-13T11:24:13.457Z,1019.76
2023-05-13T11:25:13.273Z,1019.74
2023-05-13T11:26:13.076Z,1019.70
2023-05-13T11:27:12.927Z,1019.68
2023-05-13T11:28:12.973Z,1019.65
2023-05-13T11:29:12.865Z,1019.62
2023-05-13T11:30:13.744Z,1019.66
2023-05-13T11:31:13.855Z,1019.65
2023-05-13T11:32:12.731Z,1019.69
2023-05-13T11:33:13.653Z,1019.64
2023-05-13T11:34:13.542Z,1019.63
2023-05-13T11:35:13.338Z,1019.62
2023-05-13T11:36:13.313Z,1019.67
2023-05-13T11:37:13.437Z,1019.65
2023-05-13T11:38:13.457Z,1019.67
2023-05-13T11:39:13.250Z,1019.65
2023-05-13T11:40:13.118Z,1019.58
2023-05-13T11:41:12.974Z,1019.64
2023-05-13T11:42:12.866Z,1019.63
2023-05-13T11:43:13.790Z,1019.63
2023-05-13T11:44:14.276Z,1019.59
2023-05-13T11:45:13.245Z,1019.58
2023-05-13T11:46:13.225Z,1019.64
2023-05-13T11:47:13.117Z,1019.60
2023-05-13T11:48:12.994Z,1019.57
2023-05-13T11:49:12.855Z,1019.50
2023-05-13T11:50:13.877Z,1019.54
2023-05-13T11:51:13.660Z,1019.51
2023-05-13T11:52:13.489Z,1019.58
2023-05-13T11:53:13.284Z,1019.55
2023-05-13T11:54:13.115Z,1019.56
2023-05-13T11:55:12.914Z,1019.50
2023-05-13T11:56:12.805Z,1019.53
2023-05-13T11:57:14.009Z,1019.54
2023-05-13T11:58:13.227Z,1019.60
2023-05-13T11:59:13.042Z,1019.58
2023-05-13T12:00:12.941Z,1019.55
2023-05-13T12:01:12.973Z,1019.54
2023-05-13T12:02:12.903Z,1019.51
2023-05-13T12:03:12.900Z,1019.50
2023-05-13T12:04:13.003Z,1019.51
2023-05-13T12:05:13.058Z,1019.51
2023-05-13T12:06:13.136Z,1019.51